createdAt,value
2023-02-22T00:01:35.385Z,8.93
2023-02-22T00:04:39.698Z,8.83
2023-02-22T00:07:42.241Z,10.07
2023-02-22T00:10:44.891Z,10.27
2023-02-22T00:13:47.660Z,10.03
2023-02-22T00:16:50.658Z,10.30
2023-02-22T00:19:52.872Z,10.13
2023-02-22T00:22:55.016Z,9.53
2023-02-22T00:25:59.155Z,9.37
2023-02-22T00:29:01.452Z,10.10
2023-02-22T00:32:04.159Z,10.53
2023-02-22T00:35:08.349Z,9.90
2023-02-22T00:38:10.651Z,9.30
2023-02-22T00:41:12.812Z,9.30
2023-02-22T00:44:15.022Z,9.97
2023-02-22T00:47:16.926Z,9.70
2023-02-22T00:50:19.612Z,10.60
2023-02-22T00:53:25.892Z,13.00
2023-02-22T00:56:28.713Z,12.63
2023-02-22T00:59:31.159Z,10.10
2023-02-22T01:05:52.770Z,9.13
2023-02-22T01:08:55.605Z,9.47
2023-02-22T01:11:57.564Z,15.20
2023-02-22T01:14:59.772Z,11.50
2023-02-22T01:18:01.790Z,10.23
2023-02-22T01:21:05.064Z,9.77
2023-02-22T01:24:07.521Z,14.87
2023-02-22T01:27:10.981Z,10.37
2023-02-22T01:30:14.607Z,10.07
2023-02-22T01:33:17.211Z,9.90
2023-02-22T01:36:19.235Z,10.33
2023-02-22T01:39:21.538Z,8.50
2023-02-22T01:42:24.151Z,8.20
2023-02-22T01:45:35.216Z,8.00
2023-02-22T01:48:46.007Z,8.43
2023-02-22T01:51:52.881Z,8.17
2023-02-22T01:54:58.582Z,7.93
2023-02-22T01:58:01.642Z,8.67
2023-02-22T02:01:04.024Z,8.77
2023-02-22T02:04:10.740Z,8.23
2023-02-22T02:07:17.189Z,8.43
2023-02-22T02:10:20.168Z,8.80
2023-02-22T02:13:22.477Z,7.47
2023-02-22T02:16:40.156Z,7.13
2023-02-22T02:20:01.334Z,7.23
2023-02-22T02:23:18.717Z,6.30
2023-02-22T02:27:00.662Z,6.10
2023-02-22T02:30:35.809Z,7.27
2023-02-22T02:33:58.573Z,7.07
2023-02-22T02:37:06.202Z,7.23
2023-02-22T02:40:49.355Z,7.00
2023-02-22T02:44:12.189Z,8.13
2023-02-22T02:47:42.541Z,7.57
2023-02-22T02:50:49.934Z,6.90
2023-02-22T02:53:53.064Z,7.17
2023-02-22T02:56:57.605Z,6.70
2023-02-22T02:59:59.602Z,7.83
2023-02-22T03:03:23.348Z,7.03
2023-02-22T03:06:44.286Z,9.43
2023-02-22T03:10:26.278Z,9.20
2023-02-22T03:13:30.989Z,9.80
2023-02-22T03:16:46.044Z,9.07
2023-02-22T03:20:39.096Z,9.27
2023-02-22T03:23:55.310Z,9.57
2023-02-22T03:27:00.467Z,10.37
2023-02-22T03:30:08.799Z,10.97
2023-02-22T03:33:16.957Z,10.87
2023-02-22T03:36:25.238Z,10.40
2023-02-22T03:39:31.184Z,10.63
2023-02-22T03:42:37.677Z,11.87
2023-02-22T03:45:43.497Z,10.07
2023-02-22T03:49:03.118Z,11.20
2023-02-22T03:52:06.938Z,10.67
2023-02-22T03:55:11.820Z,10.70
2023-02-22T03:58:14.847Z,9.60
2023-02-22T04:01:17.854Z,10.23
2023-02-22T04:04:21.334Z,9.90
2023-02-22T04:07:23.646Z,9.63
2023-02-22T04:10:25.826Z,9.13
2023-02-22T04:13:28.422Z,8.83
2023-02-22T04:16:30.503Z,8.50
2023-02-22T04:19:32.774Z,8.83
2023-02-22T04:22:34.723Z,8.23
2023-02-22T04:25:37.043Z,8.57
2023-02-22T04:28:39.047Z,9.73
2023-02-22T04:31:41.435Z,8.73
2023-02-22T04:34:43.434Z,10.20
2023-02-22T04:37:45.750Z,9.47
2023-02-22T04:40:47.921Z,10.33
2023-02-22T04:43:50.402Z,8.73
2023-02-22T04:46:52.699Z,10.30
2023-02-22T04:49:54.992Z,8.70
2023-02-22T04:52:57.415Z,8.70
2023-02-22T04:55:59.781Z,8.67
2023-02-22T04:59:01.813Z,9.80
2023-02-22T05:02:04.559Z,9.63
2023-02-22T05:05:06.938Z,11.63
2023-02-22T05:08:09.269Z,11.50
2023-02-22T05:11:11.285Z,11.10
2023-02-22T05:14:13.629Z,10.70
2023-02-22T05:17:15.790Z,10.47
2023-02-22T05:20:30.239Z,10.57
2023-02-22T05:23:32.350Z,12.17
2023-02-22T05:26:34.572Z,7.67
2023-02-22T05:29:38.617Z,16.43
2023-02-22T05:32:40.961Z,12.43
2023-02-22T05:35:43.459Z,12.50
2023-02-22T05:38:45.724Z,14.60
2023-02-22T05:41:47.941Z,15.23
2023-02-22T05:44:50.264Z,14.47
2023-02-22T05:47:52.873Z,18.13
2023-02-22T05:50:56.076Z,31.97
2023-02-22T05:53:58.064Z,43.67
2023-02-22T05:57:00.394Z,23.17
2023-02-22T06:00:06.705Z,29.03
2023-02-22T06:03:10.327Z,24.87
2023-02-22T06:06:12.305Z,25.03
2023-02-22T06:09:14.576Z,37.40
2023-02-22T06:12:17.627Z,42.93
2023-02-22T06:15:21.742Z,71.17
2023-02-22T06:18:26.637Z,89.33
2023-02-22T06:21:29.832Z,95.67
2023-02-22T06:24:31.819Z,183.93
2023-02-22T06:27:34.817Z,48.80
2023-02-22T06:30:36.954Z,36.77
2023-02-22T06:33:39.328Z,79.23
2023-02-22T06:36:42.428Z,120.17
2023-02-22T06:39:44.766Z,149.27
2023-02-22T06:42:49.023Z,165.07
2023-02-22T06:45:52.506Z,139.50
2023-02-22T06:48:54.897Z,98.90
2023-02-22T06:51:57.268Z,64.50
2023-02-22T06:54:59.298Z,45.63
2023-02-22T06:58:03.965Z,35.07
2023-02-22T07:01:07.865Z,34.47
2023-02-22T07:04:11.565Z,46.43
2023-02-22T07:07:13.537Z,37.17
2023-02-22T07:10:23.211Z,29.70
2023-02-22T07:13:25.271Z,16.20
2023-02-22T07:16:27.854Z,14.57
2023-02-22T07:19:29.941Z,11.30
2023-02-22T07:22:32.179Z,10.67
2023-02-22T07:25:34.778Z,11.77
2023-02-22T07:28:37.008Z,11.53
2023-02-22T07:31:39.388Z,11.27
2023-02-22T07:34:43.043Z,12.10
2023-02-22T07:37:45.072Z,9.67
2023-02-22T07:40:54.740Z,10.57
2023-02-22T07:43:58.052Z,10.63
2023-02-22T07:47:03.637Z,10.80
2023-02-22T07:50:07.746Z,10.73
2023-02-22T07:53:20.448Z,10.33
2023-02-22T07:56:22.715Z,10.47
2023-02-22T07:59:24.957Z,9.30
2023-02-22T08:02:27.101Z,10.23
2023-02-22T08:05:31.241Z,10.57
2023-02-22T08:08:36.407Z,10.10
2023-02-22T08:11:41.728Z,10.53
2023-02-22T08:14:43.709Z,9.20
2023-02-22T08:17:46.049Z,9.73
2023-02-22T08:20:49.501Z,10.27
2023-02-22T08:23:54.395Z,10.00
2023-02-22T08:26:58.747Z,8.80
2023-02-22T08:30:01.043Z,11.13
2023-02-22T08:33:04.376Z,9.47
2023-02-22T08:36:09.279Z,9.80
2023-02-22T08:39:11.465Z,9.97
2023-02-22T08:42:13.756Z,9.77
2023-02-22T08:45:16.484Z,10.60
2023-02-22T08:48:20.761Z,9.83
2023-02-22T08:51:22.956Z,8.87
2023-02-22T08:54:25.324Z,9.77
2023-02-22T08:57:27.458Z,10.57
2023-02-22T09:00:33.647Z,9.63
2023-02-22T09:03:35.710Z,9.57
2023-02-22T09:06:41.856Z,10.30
2023-02-22T09:09:44.714Z,11.57
2023-02-22T09:12:47.009Z,10.83
2023-02-22T09:15:51.484Z,11.33
2023-02-22T09:18:53.732Z,10.27
2023-02-22T09:21:58.541Z,9.87
2023-02-22T09:25:11.282Z,10.40
2023-02-22T09:28:18.574Z,10.70
2023-02-22T09:31:21.408Z,11.60
2023-02-22T09:34:31.942Z,11.13
2023-02-22T09:37:34.211Z,11.17
2023-02-22T09:40:44.862Z,10.30
2023-02-22T09:44:21.158Z,12.30
2023-02-22T09:47:32.516Z,11.17
2023-02-22T09:50:42.314Z,10.30
2023-02-22T09:53:50.433Z,11.60
2023-02-22T09:56:57.500Z,10.70
2023-02-22T10:00:12.976Z,11.00
2023-02-22T10:03:40.446Z,11.13
2023-02-22T10:07:06.943Z,10.80
2023-02-22T10:10:18.569Z,10.13
2023-02-22T10:13:51.221Z,10.07
2023-02-22T10:17:15.326Z,9.97
2023-02-22T10:20:43.473Z,9.70
2023-02-22T10:24:07.516Z,10.13
2023-02-22T10:27:36.457Z,9.90
2023-02-22T10:30:49.327Z,8.73
2023-02-22T10:34:05.842Z,8.83
2023-02-22T10:37:30.608Z,9.17
2023-02-22T10:40:35.227Z,8.93
2023-02-22T10:43:38.688Z,8.00
2023-02-22T10:46:43.222Z,9.63
2023-02-22T10:49:57.136Z,9.07
2023-02-22T10:52:59.300Z,7.50
2023-02-22T10:56:16.860Z,7.60
2023-02-22T10:59:29.243Z,8.50
2023-02-22T11:02:35.993Z,8.83
2023-02-22T11:05:42.889Z,8.70
2023-02-22T11:08:51.435Z,7.90
2023-02-22T11:12:12.026Z,7.67
2023-02-22T11:15:17.299Z,7.23
2023-02-22T11:18:26.861Z,7.43
2023-02-22T11:21:32.335Z,6.87
2023-02-22T11:24:48.500Z,7.23
2023-02-22T11:27:52.519Z,7.97
2023-02-22T11:30:57.628Z,8.03
2023-02-22T11:34:03.622Z,7.93
2023-02-22T11:37:29.747Z,7.70
2023-02-22T11:40:34.523Z,7.77
2023-02-22T11:43:37.673Z,7.73
2023-02-22T11:46:41.639Z,6.67
2023-02-22T11:49:45.869Z,7.40
2023-02-22T11:52:53.212Z,7.00
2023-02-22T11:56:41.386Z,7.37
2023-02-22T12:00:27.621Z,7.80
2023-02-22T12:03:38.898Z,6.77
2023-02-22T12:07:08.290Z,7.23
2023-02-22T12:10:18.186Z,6.87
2023-02-22T12:14:05.588Z,8.50
2023-02-22T12:17:10.893Z,7.50
2023-02-22T12:20:27.137Z,8.37
2023-02-22T12:23:53.392Z,6.13
2023-02-22T12:27:04.573Z,6.50
2023-02-22T12:30:26.353Z,6.70
2023-02-22T12:33:34.370Z,6.20
2023-02-22T12:36:43.608Z,7.33
2023-02-22T12:40:01.243Z,7.07
2023-02-22T12:43:22.630Z,6.70
2023-02-22T12:46:49.526Z,7.77
2023-02-22T12:50:28.587Z,8.23
2023-02-22T12:53:41.180Z,6.73
2023-02-22T12:57:22.909Z,5.70
2023-02-22T13:00:40.065Z,5.53
2023-02-22T13:03:44.034Z,6.17
2023-02-22T13:07:25.712Z,6.77
2023-02-22T13:10:36.824Z,5.87
2023-02-22T13:13:56.058Z,8.43
2023-02-22T13:17:20.811Z,5.73
2023-02-22T13:20:27.294Z,6.00
2023-02-22T13:23:48.822Z,6.23
2023-02-22T13:26:56.863Z,5.47
2023-02-22T13:30:00.248Z,5.57
2023-02-22T13:33:42.285Z,5.20
2023-02-22T13:37:28.023Z,6.23
2023-02-22T13:40:54.937Z,4.70
2023-02-22T13:44:12.342Z,4.70
2023-02-22T13:47:34.545Z,4.40
2023-02-22T13:50:36.716Z,4.90
2023-02-22T13:53:48.258Z,4.30
2023-02-22T13:56:52.837Z,4.43
2023-02-22T14:00:23.384Z,4.40
2023-02-22T14:03:40.705Z,4.27
2023-02-22T14:06:44.153Z,4.50
2023-02-22T14:09:50.530Z,6.10
2023-02-22T14:12:53.139Z,4.33
2023-02-22T14:16:01.141Z,4.43
2023-02-22T14:19:15.582Z,4.00
2023-02-22T14:22:27.793Z,3.90
2023-02-22T14:25:38.512Z,4.47
2023-02-22T14:28:46.229Z,4.63
2023-02-22T14:31:54.109Z,4.07
2023-02-22T14:35:09.638Z,4.13
2023-02-22T14:38:19.804Z,4.53
2023-02-22T14:41:28.917Z,3.33
2023-02-22T14:44:40.029Z,3.87
2023-02-22T14:48:04.199Z,4.80
2023-02-22T14:51:26.907Z,3.37
2023-02-22T14:54:44.910Z,4.20
2023-02-22T14:58:08.581Z,3.60
2023-02-22T15:01:44.317Z,4.33
2023-02-22T15:04:54.684Z,5.20
2023-02-22T15:08:02.673Z,5.67
2023-02-22T15:11:05.710Z,5.13
2023-02-22T15:14:25.635Z,4.87
2023-02-22T15:17:28.378Z,5.13
2023-02-22T15:20:30.630Z,5.67
2023-02-22T15:24:00.391Z,5.30
2023-02-22T15:27:17.424Z,5.13
2023-02-22T15:30:23.535Z,5.77
2023-02-22T15:33:31.507Z,5.20
2023-02-22T15:36:35.240Z,5.43
2023-02-22T15:39:43.778Z,5.57
2023-02-22T15:42:53.188Z,5.07
2023-02-22T15:46:00.251Z,5.73
2023-02-22T15:49:12.228Z,5.63
2023-02-22T15:52:25.888Z,6.30
2023-02-22T15:55:35.377Z,5.53
2023-02-22T15:58:39.077Z,5.90
2023-02-22T16:01:43.809Z,7.03
2023-02-22T16:04:59.048Z,6.10
2023-02-22T16:08:01.993Z,8.47
2023-02-22T16:11:15.102Z,8.13
2023-02-22T16:14:31.082Z,7.70
2023-02-22T16:17:49.297Z,7.53
2023-02-22T16:21:23.888Z,7.77
2023-02-22T16:24:28.056Z,6.47
2023-02-22T16:27:30.467Z,7.53
2023-02-22T16:30:36.524Z,9.80
2023-02-22T16:33:41.385Z,7.83
2023-02-22T16:36:47.489Z,7.10
2023-02-22T16:39:51.868Z,7.57
2023-02-22T16:42:53.872Z,8.13
2023-02-22T16:46:00.022Z,9.70
2023-02-22T16:49:03.424Z,8.53
2023-02-22T16:52:07.557Z,7.60
2023-02-22T16:55:15.947Z,8.93
2023-02-22T16:58:27.835Z,8.43
2023-02-22T17:01:31.352Z,7.93
2023-02-22T17:04:34.487Z,8.03
2023-02-22T17:07:36.626Z,11.80
2023-02-22T17:10:39.082Z,10.43
2023-02-22T17:13:41.122Z,16.20
2023-02-22T17:16:49.084Z,12.57
2023-02-22T17:19:51.366Z,10.67
2023-02-22T17:22:53.753Z,18.10
2023-02-22T17:25:59.216Z,16.23
2023-02-22T17:29:01.528Z,13.70
2023-02-22T17:32:04.379Z,14.73
2023-02-22T17:35:06.906Z,13.60
2023-02-22T17:38:09.852Z,20.90
2023-02-22T17:41:12.120Z,12.83
2023-02-22T17:44:14.236Z,15.67
2023-02-22T17:47:16.596Z,17.83
2023-02-22T17:50:20.440Z,15.60
2023-02-22T17:53:24.872Z,14.60
2023-02-22T17:56:27.042Z,10.80
2023-02-22T17:59:29.741Z,10.07
2023-02-22T18:02:34.559Z,8.93
2023-02-22T18:05:42.633Z,12.53
2023-02-22T18:08:47.705Z,14.47
2023-02-22T18:11:49.944Z,9.60
2023-02-22T18:14:53.266Z,9.20
2023-02-22T18:17:56.451Z,8.57
2023-02-22T18:21:01.830Z,8.40
2023-02-22T18:24:04.697Z,9.80
2023-02-22T18:27:06.764Z,10.40
2023-02-22T18:30:10.151Z,11.47
2023-02-22T18:33:13.137Z,9.67
2023-02-22T18:36:16.832Z,11.23
2023-02-22T18:39:19.138Z,10.63
2023-02-22T18:42:23.650Z,10.90
2023-02-22T18:45:27.892Z,10.87
2023-02-22T18:48:30.285Z,12.67
2023-02-22T18:51:33.822Z,13.80
2023-02-22T18:54:38.420Z,14.67
2023-02-22T18:57:41.045Z,15.20
2023-02-22T19:00:43.377Z,17.60
2023-02-22T19:03:49.446Z,16.57
2023-02-22T19:06:55.556Z,15.57
2023-02-22T19:09:57.781Z,17.00
2023-02-22T19:13:00.142Z,15.70
2023-02-22T19:16:04.127Z,17.63
2023-02-22T19:19:06.709Z,13.73
2023-02-22T19:22:08.898Z,16.60
2023-02-22T19:25:12.165Z,16.47
2023-02-22T19:28:16.100Z,16.17
2023-02-22T19:31:29.406Z,15.63
2023-02-22T19:34:31.650Z,12.67
2023-02-22T19:37:35.512Z,15.17
2023-02-22T19:40:37.667Z,14.70
2023-02-22T19:43:40.034Z,14.50
2023-02-22T19:46:42.135Z,14.63
2023-02-22T19:49:44.697Z,15.53
2023-02-22T19:52:47.184Z,14.90
2023-02-22T19:55:49.643Z,15.40
2023-02-22T19:58:51.610Z,14.83
2023-02-22T20:01:55.299Z,15.27
2023-02-22T20:04:57.311Z,18.90
2023-02-22T20:08:00.033Z,17.30
2023-02-22T20:11:02.510Z,15.50
2023-02-22T20:14:08.427Z,16.03
2023-02-22T20:17:10.553Z,14.83
2023-02-22T20:20:13.705Z,15.40
2023-02-22T20:23:22.118Z,15.20
2023-02-22T20:26:34.733Z,14.13
2023-02-22T20:33:11.718Z,16.07
2023-02-22T20:36:23.690Z,15.83
2023-02-22T20:39:31.482Z,14.70
2023-02-22T20:42:46.101Z,15.40
2023-02-22T20:45:50.174Z,16.23
2023-02-22T20:49:03.315Z,16.23
2023-02-22T20:52:10.356Z,16.10
2023-02-22T20:55:22.828Z,16.50
2023-02-22T20:58:29.278Z,16.10
2023-02-22T21:01:35.930Z,16.50
2023-02-22T21:04:45.301Z,15.23
2023-02-22T21:07:51.576Z,15.57
2023-02-22T21:10:53.653Z,16.00
2023-02-22T21:13:59.120Z,16.00
2023-02-22T21:17:04.034Z,16.17
2023-02-22T21:20:12.204Z,15.10
2023-02-22T21:23:16.096Z,15.33
2023-02-22T21:30:12.107Z,15.53
2023-02-22T21:34:01.190Z,14.27
2023-02-22T21:37:07.954Z,12.77
2023-02-22T21:41:00.785Z,15.57
2023-02-22T21:44:03.131Z,15.53
2023-02-22T21:47:05.556Z,15.40
2023-02-22T21:50:10.313Z,16.53
2023-02-22T21:53:18.569Z,14.53
2023-02-22T21:56:32.575Z,16.47
2023-02-22T21:59:35.295Z,14.47
2023-02-22T22:02:38.195Z,15.57
2023-02-22T22:05:40.538Z,14.63
2023-02-22T22:08:43.320Z,15.10
2023-02-22T22:11:53.593Z,14.23
2023-02-22T22:14:55.892Z,15.10
2023-02-22T22:18:05.487Z,13.67
2023-02-22T22:21:20.040Z,14.50
2023-02-22T22:24:24.031Z,14.43
2023-02-22T22:27:27.335Z,13.63
2023-02-22T22:30:29.378Z,13.30
2023-02-22T22:33:31.851Z,13.00
2023-02-22T22:36:34.809Z,13.57
2023-02-22T22:39:38.744Z,12.60
2023-02-22T22:42:40.859Z,12.60
2023-02-22T22:45:43.671Z,13.40
2023-02-22T22:48:47.229Z,13.63
2023-02-22T22:51:49.618Z,14.20
2023-02-22T22:54:51.617Z,12.47
2023-02-22T22:57:53.877Z,13.50
2023-02-22T23:01:00.051Z,12.43
2023-02-22T23:04:05.007Z,11.63
2023-02-22T23:07:07.108Z,12.70
2023-02-22T23:10:12.699Z,11.90
2023-02-22T23:13:15.652Z,12.33
2023-02-22T23:16:19.832Z,12.90
2023-02-22T23:19:22.783Z,12.80
2023-02-22T23:22:25.141Z,11.67
2023-02-22T23:25:27.500Z,12.67
2023-02-22T23:28:29.893Z,12.40
2023-02-22T23:31:32.272Z,12.30
2023-02-22T23:34:36.808Z,12.13
2023-02-22T23:37:39.930Z,12.07
2023-02-22T23:40:44.696Z,11.60
2023-02-22T23:43:47.274Z,11.90
2023-02-22T23:46:55.269Z,11.93
2023-02-22T23:49:59.011Z,11.87
2023-02-22T23:53:03.536Z,11.53
2023-02-22T23:56:09.978Z,11.20
2023-02-22T23:59:12.598Z,11.93
